createdAt,value
2023-05-14T00:07:12.644Z,98.0
2023-05-14T00:20:12.674Z,98.0
2023-05-14T00:33:12.653Z,98.0
2023-05-14T00:46:12.696Z,97.0
2023-05-14T00:59:12.670Z,96.0
2023-05-14T01:12:12.673Z,96.0
2023-05-14T01:25:12.650Z,96.0
2023-05-14T01:38:12.663Z,94.0
2023-05-14T01:51:12.678Z,90.0
2023-05-14T02:04:12.717Z,92.0
2023-05-14T02:17:12.707Z,94.0
2023-05-14T02:30:12.712Z,91.0
2023-05-14T02:43:12.707Z,91.0
2023-05-14T02:56:12.711Z,93.0
2023-05-14T03:09:12.730Z,94.0
2023-05-14T03:22:12.727Z,94.0
2023-05-14T03:35:12.738Z,95.0
2023-05-14T03:49:12.756Z,95.0
2023-05-14T04:03:12.907Z,95.0
2023-05-14T04:17:12.744Z,86.0
2023-05-14T04:31:12.803Z,81.0
2023-05-14T04:46:12.796Z,84.0
2023-05-14T05:00:12.765Z,89.0
2023-05-14T05:14:12.770Z,90.0
2023-05-14T05:28:12.756Z,91.0
2023-05-14T05:42:12.774Z,90.0
2023-05-14T05:56:12.778Z,90.0
2023-05-14T06:10:12.786Z,86.0
2023-05-14T06:24:12.793Z,83.0
2023-05-14T06:38:12.816Z,85.0
2023-05-14T06:52:12.790Z,85.0
2023-05-14T07:06:13.602Z,85.0
2023-05-14T07:20:12.812Z,85.0
2023-05-14T07:34:12.850Z,88.0
2023-05-14T07:48:12.929Z,89.0
2023-05-14T08:02:12.896Z,87.0
2023-05-14T08:16:12.846Z,86.0
2023-05-14T08:30:12.858Z,84.0
2023-05-14T08:44:12.856Z,86.0
2023-05-14T08:58:12.861Z,83.0
2023-05-14T09:12:12.850Z,82.0
2023-05-14T09:26:12.873Z,82.0
2023-05-14T09:40:12.879Z,82.0
2023-05-14T09:54:12.875Z,82.0
2023-05-14T10:08:12.894Z,82.0
2023-05-14T10:22:12.899Z,84.0
2023-05-14T10:36:12.891Z,87.0
2023-05-14T10:50:12.908Z,86.0
2023-05-14T11:04:12.996Z,88.0
2023-05-14T11:18:12.968Z,89.0
2023-05-14T11:32:12.943Z,89.0
2023-05-14T11:46:13.070Z,86.0
2023-05-14T12:00:12.957Z,85.0
2023-05-14T12:14:12.929Z,81.0
2023-05-14T12:28:12.934Z,81.0
2023-05-14T12:42:12.954Z,74.0
2023-05-14T12:56:12.965Z,71.0
2023-05-14T13:10:12.962Z,71.0
2023-05-14T13:24:12.950Z,69.0
2023-05-14T13:38:12.981Z,65.0
2023-05-14T13:52:12.961Z,67.0
2023-05-14T14:06:12.974Z,67.0
2023-05-14T14:20:12.990Z,70.0
2023-05-14T14:34:12.996Z,71.0
2023-05-14T14:48:13.037Z,72.0
2023-05-14T15:02:13.004Z,72.0
2023-05-14T15:16:13.041Z,76.0
2023-05-14T15:30:13.003Z,76.0
2023-05-14T15:44:13.003Z,75.0
2023-05-14T15:58:13.017Z,77.0
2023-05-14T16:12:12.997Z,78.0
2023-05-14T16:26:13.018Z,80.0
2023-05-14T16:40:13.023Z,80.0
2023-05-14T16:54:13.030Z,81.0
2023-05-14T17:08:13.028Z,83.0
2023-05-14T17:22:13.007Z,86.0
2023-05-14T17:37:13.029Z,87.0
2023-05-14T17:51:13.006Z,86.0
2023-05-14T18:05:13.047Z,86.0
2023-05-14T18:19:13.187Z,87.0
2023-05-14T18:33:13.093Z,88.0
2023-05-14T18:47:13.067Z,90.0
2023-05-14T19:01:13.087Z,91.0
2023-05-14T19:14:13.077Z,92.0
2023-05-14T19:27:13.064Z,92.0
2023-05-14T19:40:13.089Z,93.0
2023-05-14T19:53:13.100Z,94.0
2023-05-14T20:06:13.109Z,94.0
2023-05-14T20:19:13.178Z,94.0
2023-05-14T20:32:13.115Z,95.0
2023-05-14T20:45:13.121Z,95.0
2023-05-14T20:58:34.975Z,96.0
2023-05-14T21:11:13.180Z,95.0
2023-05-14T21:24:13.122Z,94.0
2023-05-14T21:37:13.160Z,93.0
2023-05-14T21:50:13.148Z,93.0
2023-05-14T22:03:13.245Z,93.0
2023-05-14T22:16:14.171Z,94.0
2023-05-14T22:29:13.156Z,94.0
2023-05-14T22:42:13.183Z,95.0
2023-05-14T22:55:13.165Z,96.0
2023-05-14T23:08:13.186Z,96.0
2023-05-14T23:21:13.205Z,97.0
2023-05-14T23:34:13.274Z,97.0
2023-05-14T23:47:13.288Z,97.0
